الصفحة الرئيسية
METAR-TAF:

METAR-TAF

مطار :

نوميا, نيو كاليدونيا

دائرة عرض: 22-15-30S, خط طول: 166-28-22E, ارتفاع: 3 متر

METAR: مفقودة

زمن: 18:15 (07:15 UTC)

توقعات

تاريخ ووقت الإصدار 14ساعات و 15 دقيقة قبل الساعة 17:00UTC
التوقعات صالحة من13 الساعة 18 UTC إلى 14 الساعة 18 UTC
ريح 2 عقدةمن اتجاهات متغيرة
الرؤية 10 كم أو أكثر
غيوم قليلة على ارتفاع 3000 قدم
غيوم متفرقة على ارتفاع 5000 قدم
غيوم مفككة على ارتفاع 6400 قدم
أصبح
من 13 الساعة 22 UTC إلى 13 الساعة 24 UTC
ريح 12 عقدة من الشرق

TAF: NWWM 131700Z 1318/1418 VRB02KT 9999 FEW030 SCT050 BKN064 BECMG 1322/1324 09012KT

أرصاد الطقس والتوقعات من أكثر من 4000 مطار (تقارير الطقس للمطار METAR والتنبؤ بالطقس بالمطارTAF).

المحطات المتاحة هي النقط الصفراء والحمراء على الخريطة.

حرك المؤشر فوق النقطة لمعرفة اسم المحطة.

ثم انقر لمعرفة أرصاد وتوقعات الطقس.

لتغيير الخارطة: اضغط على الأزرار الخضراء مع رمز الصليب الأسود للتكبير. على الزر الأخضر مع شرطة للتصغير، أو على الأسهم الخضراء للخرائط المجاورة.


METAR-TAF: